sensor_id;sensor_type;location;lat;lon;timestamp;temperature;humidity
24049;DHT22;12250;50.956;4.746;2023-08-06T00:00:12;15.70;99.90
24049;DHT22;12250;50.956;4.746;2023-08-06T00:02:39;15.70;99.90
24049;DHT22;12250;50.956;4.746;2023-08-06T00:05:05;15.70;99.90
24049;DHT22;12250;50.956;4.746;2023-08-06T00:07:30;15.70;99.90
24049;DHT22;12250;50.956;4.746;2023-08-06T00:09:56;15.70;99.90
24049;DHT22;12250;50.956;4.746;2023-08-06T00:12:22;15.80;99.90
24049;DHT22;12250;50.956;4.746;2023-08-06T00:14:51;15.80;99.90
24049;DHT22;12250;50.956;4.746;2023-08-06T00:17:18;15.80;99.90
24049;DHT22;12250;50.956;4.746;2023-08-06T00:19:44;15.80;99.90
24049;DHT22;12250;50.956;4.746;2023-08-06T00:22:09;15.70;99.90
24049;DHT22;12250;50.956;4.746;2023-08-06T00:24:36;15.70;99.90
24049;DHT22;12250;50.956;4.746;2023-08-06T00:27:02;15.70;99.90
24049;DHT22;12250;50.956;4.746;2023-08-06T00:29:29;15.70;99.90
24049;DHT22;12250;50.956;4.746;2023-08-06T00:31:55;15.70;99.90
24049;DHT22;12250;50.956;4.746;2023-08-06T00:34:20;15.80;99.90
24049;DHT22;12250;50.956;4.746;2023-08-06T00:36:46;15.70;99.90
24049;DHT22;12250;50.956;4.746;2023-08-06T00:39:12;15.80;99.90
24049;DHT22;12250;50.956;4.746;2023-08-06T00:41:37;15.80;99.90
24049;DHT22;12250;50.956;4.746;2023-08-06T00:44:03;15.80;99.90
24049;DHT22;12250;50.956;4.746;2023-08-06T00:46:29;15.70;99.90
24049;DHT22;12250;50.956;4.746;2023-08-06T00:48:56;15.70;99.90
24049;DHT22;12250;50.956;4.746;2023-08-06T00:51:22;15.70;99.90
24049;DHT22;12250;50.956;4.746;2023-08-06T00:53:49;15.70;99.90
24049;DHT22;12250;50.956;4.746;2023-08-06T00:56:15;15.70;99.90
24049;DHT22;12250;50.956;4.746;2023-08-06T00:58:41;15.80;99.90
24049;DHT22;12250;50.956;4.746;2023-08-06T01:01:07;15.80;99.90
24049;DHT22;12250;50.956;4.746;2023-08-06T01:03:33;15.80;99.90
24049;DHT22;12250;50.956;4.746;2023-08-06T01:05:59;15.80;99.90
24049;DHT22;12250;50.956;4.746;2023-08-06T01:08:48;15.80;99.90
24049;DHT22;12250;50.956;4.746;2023-08-06T01:14:18;15.80;99.90
24049;DHT22;12250;50.956;4.746;2023-08-06T01:16:45;15.80;99.90
24049;DHT22;12250;50.956;4.746;2023-08-06T01:19:18;15.80;99.90
24049;DHT22;12250;50.956;4.746;2023-08-06T01:21:45;15.80;99.90
24049;DHT22;12250;50.956;4.746;2023-08-06T01:24:12;15.80;99.90
24049;DHT22;12250;50.956;4.746;2023-08-06T01:26:42;15.80;99.90
24049;DHT22;12250;50.956;4.746;2023-08-06T01:29:17;15.80;99.90
24049;DHT22;12250;50.956;4.746;2023-08-06T01:31:44;15.80;99.90
24049;DHT22;12250;50.956;4.746;2023-08-06T01:34:20;15.80;99.90
24049;DHT22;12250;50.956;4.746;2023-08-06T01:36:46;15.80;99.90
24049;DHT22;12250;50.956;4.746;2023-08-06T01:39:12;15.80;99.90
24049;DHT22;12250;50.956;4.746;2023-08-06T01:41:39;15.80;99.90
24049;DHT22;12250;50.956;4.746;2023-08-06T01:44:05;15.80;99.90
24049;DHT22;12250;50.956;4.746;2023-08-06T01:46:31;15.90;99.90
24049;DHT22;12250;50.956;4.746;2023-08-06T01:48:56;15.90;99.90
24049;DHT22;12250;50.956;4.746;2023-08-06T01:51:22;15.90;99.90
24049;DHT22;12250;50.956;4.746;2023-08-06T01:53:48;15.90;99.90
24049;DHT22;12250;50.956;4.746;2023-08-06T01:56:13;15.90;99.90
24049;DHT22;12250;50.956;4.746;2023-08-06T01:58:39;15.90;99.90
24049;DHT22;12250;50.956;4.746;2023-08-06T02:01:05;15.90;99.90
24049;DHT22;12250;50.956;4.746;2023-08-06T02:03:31;15.90;99.90
24049;DHT22;12250;50.956;4.746;2023-08-06T02:05:56;15.90;99.90
24049;DHT22;12250;50.956;4.746;2023-08-06T02:08:22;16.00;99.90
24049;DHT22;12250;50.956;4.746;2023-08-06T02:10:48;16.00;99.90
24049;DHT22;12250;50.956;4.746;2023-08-06T02:13:14;16.00;99.90
24049;DHT22;12250;50.956;4.746;2023-08-06T02:15:43;16.00;99.90
24049;DHT22;12250;50.956;4.746;2023-08-06T02:18:10;16.00;99.90
24049;DHT22;12250;50.956;4.746;2023-08-06T02:20:36;15.90;99.90
24049;DHT22;12250;50.956;4.746;2023-08-06T02:23:01;16.00;99.90
24049;DHT22;12250;50.956;4.746;2023-08-06T02:25:27;15.90;99.90
24049;DHT22;12250;50.956;4.746;2023-08-06T02:27:53;15.90;99.90
24049;DHT22;12250;50.956;4.746;2023-08-06T02:30:18;15.90;99.90
24049;DHT22;12250;50.956;4.746;2023-08-06T02:32:45;16.00;99.90
24049;DHT22;12250;50.956;4.746;2023-08-06T02:35:11;16.00;99.90
24049;DHT22;12250;50.956;4.746;2023-08-06T02:37:36;16.00;99.90
24049;DHT22;12250;50.956;4.746;2023-08-06T02:40:02;16.00;99.90
24049;DHT22;12250;50.956;4.746;2023-08-06T02:42:28;16.00;99.90
24049;DHT22;12250;50.956;4.746;2023-08-06T02:44:54;15.90;99.90
24049;DHT22;12250;50.956;4.746;2023-08-06T02:47:23;16.00;99.90
24049;DHT22;12250;50.956;4.746;2023-08-06T02:49:50;16.00;99.90
24049;DHT22;12250;50.956;4.746;2023-08-06T02:52:16;16.00;99.90
24049;DHT22;12250;50.956;4.746;2023-08-06T02:54:43;16.00;99.90
24049;DHT22;12250;50.956;4.746;2023-08-06T02:57:08;16.10;99.90
24049;DHT22;12250;50.956;4.746;2023-08-06T02:59:35;16.10;99.90
24049;DHT22;12250;50.956;4.746;2023-08-06T03:02:01;16.10;99.90
24049;DHT22;12250;50.956;4.746;2023-08-06T03:04:26;16.10;99.90
24049;DHT22;12250;50.956;4.746;2023-08-06T03:06:52;16.10;99.90
24049;DHT22;12250;50.956;4.746;2023-08-06T03:09:18;16.10;99.90
24049;DHT22;12250;50.956;4.746;2023-08-06T03:11:44;16.10;99.90
24049;DHT22;12250;50.956;4.746;2023-08-06T03:14:11;16.00;99.90
24049;DHT22;12250;50.956;4.746;2023-08-06T03:16:36;16.00;99.90
24049;DHT22;12250;50.956;4.746;2023-08-06T03:19:03;16.00;99.90
24049;DHT22;12250;50.956;4.746;2023-08-06T03:21:29;15.90;99.90
24049;DHT22;12250;50.956;4.746;2023-08-06T03:23:55;15.90;99.90
24049;DHT22;12250;50.956;4.746;2023-08-06T03:26:22;15.90;99.90
24049;DHT22;12250;50.956;4.746;2023-08-06T03:28:48;16.00;99.90
24049;DHT22;12250;50.956;4.746;2023-08-06T03:31:13;16.00;99.90
24049;DHT22;12250;50.956;4.746;2023-08-06T03:33:39;16.00;99.90
24049;DHT22;12250;50.956;4.746;2023-08-06T03:36:06;16.00;99.90
24049;DHT22;12250;50.956;4.746;2023-08-06T03:38:31;15.90;99.90
24049;DHT22;12250;50.956;4.746;2023-08-06T03:40:57;15.90;99.90
24049;DHT22;12250;50.956;4.746;2023-08-06T03:43:23;15.80;99.90
24049;DHT22;12250;50.956;4.746;2023-08-06T03:45:50;15.80;99.90
24049;DHT22;12250;50.956;4.746;2023-08-06T03:48:17;15.90;99.90
24049;DHT22;12250;50.956;4.746;2023-08-06T03:50:44;15.90;99.90
24049;DHT22;12250;50.956;4.746;2023-08-06T03:53:09;15.80;99.90
24049;DHT22;12250;50.956;4.746;2023-08-06T03:55:36;15.80;99.90
24049;DHT22;12250;50.956;4.746;2023-08-06T03:58:03;15.80;99.90
24049;DHT22;12250;50.956;4.746;2023-08-06T04:00:28;15.70;99.90
24049;DHT22;12250;50.956;4.746;2023-08-06T04:02:54;15.70;99.90
24049;DHT22;12250;50.956;4.746;2023-08-06T04:05:20;15.80;99.90
24049;DHT22;12250;50.956;4.746;2023-08-06T04:07:47;15.70;99.90
24049;DHT22;12250;50.956;4.746;2023-08-06T04:10:14;15.70;99.90
24049;DHT22;12250;50.956;4.746;2023-08-06T04:12:39;15.80;99.90
24049;DHT22;12250;50.956;4.746;2023-08-06T04:15:06;15.80;99.90
24049;DHT22;12250;50.956;4.746;2023-08-06T04:17:31;15.80;99.90
24049;DHT22;12250;50.956;4.746;2023-08-06T04:19:58;15.80;99.90
24049;DHT22;12250;50.956;4.746;2023-08-06T04:22:24;15.80;99.90
24049;DHT22;12250;50.956;4.746;2023-08-06T04:24:50;15.80;99.90
24049;DHT22;12250;50.956;4.746;2023-08-06T04:27:20;15.80;99.90
24049;DHT22;12250;50.956;4.746;2023-08-06T04:29:46;15.90;99.90
24049;DHT22;12250;50.956;4.746;2023-08-06T04:32:12;15.90;99.90
24049;DHT22;12250;50.956;4.746;2023-08-06T04:34:39;15.80;99.90
24049;DHT22;12250;50.956;4.746;2023-08-06T04:37:05;15.90;99.90
24049;DHT22;12250;50.956;4.746;2023-08-06T04:39:31;15.90;99.90
24049;DHT22;12250;50.956;4.746;2023-08-06T04:41:57;15.90;99.90
24049;DHT22;12250;50.956;4.746;2023-08-06T04:44:26;15.90;99.90
24049;DHT22;12250;50.956;4.746;2023-08-06T04:46:55;15.80;99.90
24049;DHT22;12250;50.956;4.746;2023-08-06T04:49:23;15.70;99.90
24049;DHT22;12250;50.956;4.746;2023-08-06T04:51:56;15.60;99.90
24049;DHT22;12250;50.956;4.746;2023-08-06T04:54:23;15.40;99.90
24049;DHT22;12250;50.956;4.746;2023-08-06T04:56:52;15.30;99.90
24049;DHT22;12250;50.956;4.746;2023-08-06T04:59:19;15.30;99.90
24049;DHT22;12250;50.956;4.746;2023-08-06T05:01:45;15.20;99.90
24049;DHT22;12250;50.956;4.746;2023-08-06T05:04:13;15.20;99.90
24049;DHT22;12250;50.956;4.746;2023-08-06T05:06:40;15.20;99.90
24049;DHT22;12250;50.956;4.746;2023-08-06T05:09:07;15.20;99.90
24049;DHT22;12250;50.956;4.746;2023-08-06T05:11:34;15.20;99.90
24049;DHT22;12250;50.956;4.746;2023-08-06T05:14:00;15.20;99.90
24049;DHT22;12250;50.956;4.746;2023-08-06T05:16:25;15.20;99.90
24049;DHT22;12250;50.956;4.746;2023-08-06T05:18:51;15.10;99.90
24049;DHT22;12250;50.956;4.746;2023-08-06T05:21:17;15.10;99.90
24049;DHT22;12250;50.956;4.746;2023-08-06T05:23:43;15.00;99.90
24049;DHT22;12250;50.956;4.746;2023-08-06T05:26:08;15.00;99.90
24049;DHT22;12250;50.956;4.746;2023-08-06T05:28:35;14.90;99.90
24049;DHT22;12250;50.956;4.746;2023-08-06T05:31:07;14.80;99.90
24049;DHT22;12250;50.956;4.746;2023-08-06T05:33:32;14.80;99.90
24049;DHT22;12250;50.956;4.746;2023-08-06T05:35:59;14.70;99.90
24049;DHT22;12250;50.956;4.746;2023-08-06T05:38:25;14.70;99.90
24049;DHT22;12250;50.956;4.746;2023-08-06T05:40:50;14.70;99.90
24049;DHT22;12250;50.956;4.746;2023-08-06T05:43:16;14.70;99.90
24049;DHT22;12250;50.956;4.746;2023-08-06T05:45:45;14.70;99.90
24049;DHT22;12250;50.956;4.746;2023-08-06T05:48:14;14.80;99.90
24049;DHT22;12250;50.956;4.746;2023-08-06T05:50:39;14.80;99.90
24049;DHT22;12250;50.956;4.746;2023-08-06T05:53:05;14.80;99.90
24049;DHT22;12250;50.956;4.746;2023-08-06T05:55:31;14.80;99.90
24049;DHT22;12250;50.956;4.746;2023-08-06T05:57:58;14.90;99.90
24049;DHT22;12250;50.956;4.746;2023-08-06T06:00:24;14.90;99.90
24049;DHT22;12250;50.956;4.746;2023-08-06T06:02:50;14.80;99.90
24049;DHT22;12250;50.956;4.746;2023-08-06T06:05:16;14.80;99.90
24049;DHT22;12250;50.956;4.746;2023-08-06T06:07:42;14.70;99.90
24049;DHT22;12250;50.956;4.746;2023-08-06T06:10:08;14.70;99.90
24049;DHT22;12250;50.956;4.746;2023-08-06T06:12:33;14.70;99.90
24049;DHT22;12250;50.956;4.746;2023-08-06T06:14:59;14.80;99.90
24049;DHT22;12250;50.956;4.746;2023-08-06T06:17:27;14.90;99.90
24049;DHT22;12250;50.956;4.746;2023-08-06T06:19:53;14.90;99.90
24049;DHT22;12250;50.956;4.746;2023-08-06T06:22:19;14.90;99.90
24049;DHT22;12250;50.956;4.746;2023-08-06T06:24:45;14.90;99.90
24049;DHT22;12250;50.956;4.746;2023-08-06T06:27:10;15.00;99.90
24049;DHT22;12250;50.956;4.746;2023-08-06T06:29:36;15.00;99.90
24049;DHT22;12250;50.956;4.746;2023-08-06T06:32:01;15.00;99.90
24049;DHT22;12250;50.956;4.746;2023-08-06T06:34:27;15.10;99.90
24049;DHT22;12250;50.956;4.746;2023-08-06T06:36:53;15.10;99.90
24049;DHT22;12250;50.956;4.746;2023-08-06T06:39:18;15.10;99.90
24049;DHT22;12250;50.956;4.746;2023-08-06T06:41:45;15.10;99.90
24049;DHT22;12250;50.956;4.746;2023-08-06T06:44:12;15.20;99.90
24049;DHT22;12250;50.956;4.746;2023-08-06T06:46:38;15.10;99.90
24049;DHT22;12250;50.956;4.746;2023-08-06T06:49:05;15.00;99.90
24049;DHT22;12250;50.956;4.746;2023-08-06T06:51:31;15.10;99.90
24049;DHT22;12250;50.956;4.746;2023-08-06T06:53:59;15.10;99.90
24049;DHT22;12250;50.956;4.746;2023-08-06T06:56:24;15.10;99.90
24049;DHT22;12250;50.956;4.746;2023-08-06T06:58:50;15.10;99.90
24049;DHT22;12250;50.956;4.746;2023-08-06T07:01:16;15.10;99.90
24049;DHT22;12250;50.956;4.746;2023-08-06T07:03:42;15.10;99.90
24049;DHT22;12250;50.956;4.746;2023-08-06T07:06:08;15.20;99.90
24049;DHT22;12250;50.956;4.746;2023-08-06T07:08:34;15.20;99.90
24049;DHT22;12250;50.956;4.746;2023-08-06T07:11:02;15.30;99.90
24049;DHT22;12250;50.956;4.746;2023-08-06T07:13:28;15.40;99.90
24049;DHT22;12250;50.956;4.746;2023-08-06T07:15:54;15.40;99.90
24049;DHT22;12250;50.956;4.746;2023-08-06T07:18:20;15.50;99.90
24049;DHT22;12250;50.956;4.746;2023-08-06T07:20:54;15.60;99.90
24049;DHT22;12250;50.956;4.746;2023-08-06T07:23:24;15.60;99.90
24049;DHT22;12250;50.956;4.746;2023-08-06T07:25:50;15.60;99.90
24049;DHT22;12250;50.956;4.746;2023-08-06T07:28:16;15.60;99.90
24049;DHT22;12250;50.956;4.746;2023-08-06T07:30:43;15.60;99.90
24049;DHT22;12250;50.956;4.746;2023-08-06T07:33:09;15.60;99.90
24049;DHT22;12250;50.956;4.746;2023-08-06T07:35:35;15.50;99.90
24049;DHT22;12250;50.956;4.746;2023-08-06T07:38:02;15.50;99.90
24049;DHT22;12250;50.956;4.746;2023-08-06T07:40:28;15.50;99.90
24049;DHT22;12250;50.956;4.746;2023-08-06T07:42:54;15.50;99.90
24049;DHT22;12250;50.956;4.746;2023-08-06T07:45:20;15.60;99.90
24049;DHT22;12250;50.956;4.746;2023-08-06T07:47:45;15.70;99.90
24049;DHT22;12250;50.956;4.746;2023-08-06T07:50:11;15.80;99.90
24049;DHT22;12250;50.956;4.746;2023-08-06T07:52:37;15.80;99.90
24049;DHT22;12250;50.956;4.746;2023-08-06T07:55:03;15.90;99.90
24049;DHT22;12250;50.956;4.746;2023-08-06T07:57:33;16.00;99.90
24049;DHT22;12250;50.956;4.746;2023-08-06T08:00:00;15.80;99.90
24049;DHT22;12250;50.956;4.746;2023-08-06T08:02:26;15.90;99.90
24049;DHT22;12250;50.956;4.746;2023-08-06T08:04:52;15.90;99.90
24049;DHT22;12250;50.956;4.746;2023-08-06T08:07:18;15.90;99.90
24049;DHT22;12250;50.956;4.746;2023-08-06T08:09:45;16.00;99.90
24049;DHT22;12250;50.956;4.746;2023-08-06T08:12:10;16.00;99.90
24049;DHT22;12250;50.956;4.746;2023-08-06T08:14:37;16.10;99.90
24049;DHT22;12250;50.956;4.746;2023-08-06T08:17:06;16.20;99.90
24049;DHT22;12250;50.956;4.746;2023-08-06T08:19:35;16.20;99.90
24049;DHT22;12250;50.956;4.746;2023-08-06T08:22:00;16.20;99.90
24049;DHT22;12250;50.956;4.746;2023-08-06T08:24:26;16.40;99.90
24049;DHT22;12250;50.956;4.746;2023-08-06T08:26:52;16.40;99.90
24049;DHT22;12250;50.956;4.746;2023-08-06T08:29:21;16.40;99.90
24049;DHT22;12250;50.956;4.746;2023-08-06T08:31:47;16.50;99.90
24049;DHT22;12250;50.956;4.746;2023-08-06T08:34:16;16.80;99.90
24049;DHT22;12250;50.956;4.746;2023-08-06T08:36:42;16.80;99.90
24049;DHT22;12250;50.956;4.746;2023-08-06T08:39:08;17.00;99.90
24049;DHT22;12250;50.956;4.746;2023-08-06T08:41:35;16.90;99.90
24049;DHT22;12250;50.956;4.746;2023-08-06T08:44:02;16.70;99.90
24049;DHT22;12250;50.956;4.746;2023-08-06T08:46:30;16.60;99.90
24049;DHT22;12250;50.956;4.746;2023-08-06T08:48:59;16.60;99.90
24049;DHT22;12250;50.956;4.746;2023-08-06T08:51:26;16.70;99.90
24049;DHT22;12250;50.956;4.746;2023-08-06T08:53:53;16.70;99.90
24049;DHT22;12250;50.956;4.746;2023-08-06T08:56:22;16.70;99.90
24049;DHT22;12250;50.956;4.746;2023-08-06T08:58:47;16.60;99.90
24049;DHT22;12250;50.956;4.746;2023-08-06T09:01:15;16.30;99.90
24049;DHT22;12250;50.956;4.746;2023-08-06T09:03:41;16.00;99.90
24049;DHT22;12250;50.956;4.746;2023-08-06T09:06:08;16.00;99.90
24049;DHT22;12250;50.956;4.746;2023-08-06T09:08:41;15.90;99.90
24049;DHT22;12250;50.956;4.746;2023-08-06T09:11:11;15.90;99.90
24049;DHT22;12250;50.956;4.746;2023-08-06T09:13:38;15.80;99.90
24049;DHT22;12250;50.956;4.746;2023-08-06T09:16:04;15.60;99.90
24049;DHT22;12250;50.956;4.746;2023-08-06T09:18:30;15.40;99.90
24049;DHT22;12250;50.956;4.746;2023-08-06T09:20:57;15.30;99.90
24049;DHT22;12250;50.956;4.746;2023-08-06T09:23:32;15.20;99.90
24049;DHT22;12250;50.956;4.746;2023-08-06T09:25:59;15.30;99.90
24049;DHT22;12250;50.956;4.746;2023-08-06T09:28:37;15.40;99.90
24049;DHT22;12250;50.956;4.746;2023-08-06T09:31:04;15.70;99.90
24049;DHT22;12250;50.956;4.746;2023-08-06T09:33:29;15.60;99.90
24049;DHT22;12250;50.956;4.746;2023-08-06T09:35:56;15.50;99.90
24049;DHT22;12250;50.956;4.746;2023-08-06T09:38:21;15.40;99.90
24049;DHT22;12250;50.956;4.746;2023-08-06T09:40:47;15.50;99.90
24049;DHT22;12250;50.956;4.746;2023-08-06T09:43:13;15.60;99.90
24049;DHT22;12250;50.956;4.746;2023-08-06T09:45:39;15.60;99.90
24049;DHT22;12250;50.956;4.746;2023-08-06T09:48:07;15.60;99.90
24049;DHT22;12250;50.956;4.746;2023-08-06T09:50:37;15.70;99.90
24049;DHT22;12250;50.956;4.746;2023-08-06T09:53:06;15.80;99.90
24049;DHT22;12250;50.956;4.746;2023-08-06T09:55:33;15.80;99.90
24049;DHT22;12250;50.956;4.746;2023-08-06T09:57:59;15.80;99.90
24049;DHT22;12250;50.956;4.746;2023-08-06T10:00:26;15.80;99.90
24049;DHT22;12250;50.956;4.746;2023-08-06T10:02:53;15.70;99.90
24049;DHT22;12250;50.956;4.746;2023-08-06T10:05:22;15.50;99.90
24049;DHT22;12250;50.956;4.746;2023-08-06T10:07:49;15.50;99.90
24049;DHT22;12250;50.956;4.746;2023-08-06T10:10:16;15.40;99.90
24049;DHT22;12250;50.956;4.746;2023-08-06T10:12:54;15.40;99.90
24049;DHT22;12250;50.956;4.746;2023-08-06T10:15:24;15.30;99.90
24049;DHT22;12250;50.956;4.746;2023-08-06T10:17:52;15.20;99.90
24049;DHT22;12250;50.956;4.746;2023-08-06T10:20:20;15.10;99.90
24049;DHT22;12250;50.956;4.746;2023-08-06T10:23:06;15.10;99.90
24049;DHT22;12250;50.956;4.746;2023-08-06T10:25:40;15.20;99.90
24049;DHT22;12250;50.956;4.746;2023-08-06T10:28:09;15.20;99.90
24049;DHT22;12250;50.956;4.746;2023-08-06T10:30:42;15.20;99.90
24049;DHT22;12250;50.956;4.746;2023-08-06T10:33:08;15.10;99.90
24049;DHT22;12250;50.956;4.746;2023-08-06T10:35:40;15.10;99.90
24049;DHT22;12250;50.956;4.746;2023-08-06T10:38:15;15.10;99.90
24049;DHT22;12250;50.956;4.746;2023-08-06T10:43:35;15.20;99.90
24049;DHT22;12250;50.956;4.746;2023-08-06T10:46:02;15.30;99.90
24049;DHT22;12250;50.956;4.746;2023-08-06T10:48:31;15.30;99.90
24049;DHT22;12250;50.956;4.746;2023-08-06T10:51:00;15.40;99.90
24049;DHT22;12250;50.956;4.746;2023-08-06T10:53:26;15.30;99.90
24049;DHT22;12250;50.956;4.746;2023-08-06T10:55:52;15.20;99.90
24049;DHT22;12250;50.956;4.746;2023-08-06T10:58:17;15.20;99.90
24049;DHT22;12250;50.956;4.746;2023-08-06T11:00:43;15.30;99.90
24049;DHT22;12250;50.956;4.746;2023-08-06T11:03:09;15.40;99.90
24049;DHT22;12250;50.956;4.746;2023-08-06T11:05:35;15.40;99.90
24049;DHT22;12250;50.956;4.746;2023-08-06T11:08:01;15.40;99.90
24049;DHT22;12250;50.956;4.746;2023-08-06T11:10:28;15.30;99.90
24049;DHT22;12250;50.956;4.746;2023-08-06T11:12:54;15.10;99.90
24049;DHT22;12250;50.956;4.746;2023-08-06T11:15:20;15.10;99.90
24049;DHT22;12250;50.956;4.746;2023-08-06T11:17:46;15.20;99.90
24049;DHT22;12250;50.956;4.746;2023-08-06T11:20:13;15.50;99.90
24049;DHT22;12250;50.956;4.746;2023-08-06T11:22:39;15.80;99.90
24049;DHT22;12250;50.956;4.746;2023-08-06T11:25:06;16.00;99.90
24049;DHT22;12250;50.956;4.746;2023-08-06T11:27:32;16.10;99.90
24049;DHT22;12250;50.956;4.746;2023-08-06T11:29:58;15.90;99.90
24049;DHT22;12250;50.956;4.746;2023-08-06T11:32:24;15.90;99.90
24049;DHT22;12250;50.956;4.746;2023-08-06T11:34:50;16.00;99.90
24049;DHT22;12250;50.956;4.746;2023-08-06T11:37:16;16.00;99.90
24049;DHT22;12250;50.956;4.746;2023-08-06T11:39:46;15.80;99.90
24049;DHT22;12250;50.956;4.746;2023-08-06T11:42:13;15.70;99.90
24049;DHT22;12250;50.956;4.746;2023-08-06T11:44:40;15.70;99.90
24049;DHT22;12250;50.956;4.746;2023-08-06T11:47:16;15.60;99.90
24049;DHT22;12250;50.956;4.746;2023-08-06T11:52:23;15.70;99.90
24049;DHT22;12250;50.956;4.746;2023-08-06T11:55:04;15.60;99.90
24049;DHT22;12250;50.956;4.746;2023-08-06T11:57:36;15.70;99.90
24049;DHT22;12250;50.956;4.746;2023-08-06T12:02:33;15.80;99.90
24049;DHT22;12250;50.956;4.746;2023-08-06T12:07:46;15.50;99.90
24049;DHT22;12250;50.956;4.746;2023-08-06T12:10:16;15.50;99.90
24049;DHT22;12250;50.956;4.746;2023-08-06T12:12:42;15.40;99.90
24049;DHT22;12250;50.956;4.746;2023-08-06T12:15:09;15.50;99.90
24049;DHT22;12250;50.956;4.746;2023-08-06T12:17:36;15.50;99.90
24049;DHT22;12250;50.956;4.746;2023-08-06T12:20:03;15.40;99.90
24049;DHT22;12250;50.956;4.746;2023-08-06T12:22:32;15.50;99.90
24049;DHT22;12250;50.956;4.746;2023-08-06T12:25:01;15.60;99.90
24049;DHT22;12250;50.956;4.746;2023-08-06T12:27:29;15.50;99.90
24049;DHT22;12250;50.956;4.746;2023-08-06T12:29:55;15.50;99.90
24049;DHT22;12250;50.956;4.746;2023-08-06T12:32:21;15.40;99.90
24049;DHT22;12250;50.956;4.746;2023-08-06T12:34:47;15.20;99.90
24049;DHT22;12250;50.956;4.746;2023-08-06T12:37:13;15.20;99.90
24049;DHT22;12250;50.956;4.746;2023-08-06T12:39:39;15.20;99.90
24049;DHT22;12250;50.956;4.746;2023-08-06T12:42:06;15.30;99.90
24049;DHT22;12250;50.956;4.746;2023-08-06T12:44:32;15.40;99.90
24049;DHT22;12250;50.956;4.746;2023-08-06T12:46:58;15.30;99.90
24049;DHT22;12250;50.956;4.746;2023-08-06T12:49:25;15.20;99.90
24049;DHT22;12250;50.956;4.746;2023-08-06T12:51:52;15.20;99.90
24049;DHT22;12250;50.956;4.746;2023-08-06T12:54:18;15.20;99.90
24049;DHT22;12250;50.956;4.746;2023-08-06T12:56:45;15.20;99.90
24049;DHT22;12250;50.956;4.746;2023-08-06T12:59:11;15.20;99.90
24049;DHT22;12250;50.956;4.746;2023-08-06T13:01:38;15.30;99.90
24049;DHT22;12250;50.956;4.746;2023-08-06T13:04:04;15.50;99.90
24049;DHT22;12250;50.956;4.746;2023-08-06T13:06:30;15.40;99.90
24049;DHT22;12250;50.956;4.746;2023-08-06T13:08:57;15.40;99.90
24049;DHT22;12250;50.956;4.746;2023-08-06T13:11:23;15.30;99.90
24049;DHT22;12250;50.956;4.746;2023-08-06T13:13:48;15.20;99.90
24049;DHT22;12250;50.956;4.746;2023-08-06T13:16:14;15.20;99.90
24049;DHT22;12250;50.956;4.746;2023-08-06T13:18:40;15.10;99.90
24049;DHT22;12250;50.956;4.746;2023-08-06T13:21:05;15.20;99.90
24049;DHT22;12250;50.956;4.746;2023-08-06T13:23:31;15.20;99.90
24049;DHT22;12250;50.956;4.746;2023-08-06T13:25:57;15.10;99.90
24049;DHT22;12250;50.956;4.746;2023-08-06T13:28:25;15.10;99.90
24049;DHT22;12250;50.956;4.746;2023-08-06T13:30:50;15.20;99.90
24049;DHT22;12250;50.956;4.746;2023-08-06T13:33:16;15.20;99.90
24049;DHT22;12250;50.956;4.746;2023-08-06T13:35:42;15.10;99.90
24049;DHT22;12250;50.956;4.746;2023-08-06T13:38:08;15.00;99.90
24049;DHT22;12250;50.956;4.746;2023-08-06T13:40:35;15.00;99.90
24049;DHT22;12250;50.956;4.746;2023-08-06T13:43:03;14.90;99.90
24049;DHT22;12250;50.956;4.746;2023-08-06T13:45:29;14.90;99.90
24049;DHT22;12250;50.956;4.746;2023-08-06T13:47:56;14.90;99.90
24049;DHT22;12250;50.956;4.746;2023-08-06T13:50:22;14.80;99.90
24049;DHT22;12250;50.956;4.746;2023-08-06T13:52:51;14.80;99.90
24049;DHT22;12250;50.956;4.746;2023-08-06T13:55:18;14.80;99.90
24049;DHT22;12250;50.956;4.746;2023-08-06T13:57:45;14.90;99.90
24049;DHT22;12250;50.956;4.746;2023-08-06T14:00:11;14.70;99.90
24049;DHT22;12250;50.956;4.746;2023-08-06T14:02:37;14.70;99.90
24049;DHT22;12250;50.956;4.746;2023-08-06T14:05:03;14.70;99.90
24049;DHT22;12250;50.956;4.746;2023-08-06T14:07:28;14.70;99.90
24049;DHT22;12250;50.956;4.746;2023-08-06T14:09:54;14.60;99.90
24049;DHT22;12250;50.956;4.746;2023-08-06T14:12:19;14.60;99.90
24049;DHT22;12250;50.956;4.746;2023-08-06T14:14:45;14.50;99.90
24049;DHT22;12250;50.956;4.746;2023-08-06T14:17:11;14.50;99.90
24049;DHT22;12250;50.956;4.746;2023-08-06T14:19:36;14.60;99.90
24049;DHT22;12250;50.956;4.746;2023-08-06T14:22:02;14.70;99.90
24049;DHT22;12250;50.956;4.746;2023-08-06T14:24:29;14.60;99.90
24049;DHT22;12250;50.956;4.746;2023-08-06T14:26:54;14.60;99.90
24049;DHT22;12250;50.956;4.746;2023-08-06T14:29:20;14.70;99.90
24049;DHT22;12250;50.956;4.746;2023-08-06T14:31:46;14.70;99.90
24049;DHT22;12250;50.956;4.746;2023-08-06T14:34:12;14.70;99.90
24049;DHT22;12250;50.956;4.746;2023-08-06T14:36:38;14.70;99.90
24049;DHT22;12250;50.956;4.746;2023-08-06T14:39:04;14.80;99.90
24049;DHT22;12250;50.956;4.746;2023-08-06T14:41:29;14.80;99.90
24049;DHT22;12250;50.956;4.746;2023-08-06T14:43:55;14.80;99.90
24049;DHT22;12250;50.956;4.746;2023-08-06T14:46:22;14.90;99.90
24049;DHT22;12250;50.956;4.746;2023-08-06T14:48:47;14.80;99.90
24049;DHT22;12250;50.956;4.746;2023-08-06T14:51:13;14.80;99.90
24049;DHT22;12250;50.956;4.746;2023-08-06T14:53:39;14.80;99.90
24049;DHT22;12250;50.956;4.746;2023-08-06T14:56:06;14.80;99.90
24049;DHT22;12250;50.956;4.746;2023-08-06T14:58:32;14.80;99.90
24049;DHT22;12250;50.956;4.746;2023-08-06T15:00:57;14.90;99.90
24049;DHT22;12250;50.956;4.746;2023-08-06T15:03:23;15.00;99.90
24049;DHT22;12250;50.956;4.746;2023-08-06T15:05:49;15.00;99.90
24049;DHT22;12250;50.956;4.746;2023-08-06T15:08:15;15.00;99.90
24049;DHT22;12250;50.956;4.746;2023-08-06T15:10:41;15.10;99.90
24049;DHT22;12250;50.956;4.746;2023-08-06T15:13:07;15.20;99.90
24049;DHT22;12250;50.956;4.746;2023-08-06T15:15:33;15.10;99.90
24049;DHT22;12250;50.956;4.746;2023-08-06T15:17:59;15.20;99.90
24049;DHT22;12250;50.956;4.746;2023-08-06T15:20:25;15.20;99.90
24049;DHT22;12250;50.956;4.746;2023-08-06T15:22:50;15.20;99.90
24049;DHT22;12250;50.956;4.746;2023-08-06T15:25:17;15.20;99.90
24049;DHT22;12250;50.956;4.746;2023-08-06T15:27:43;15.30;99.90
24049;DHT22;12250;50.956;4.746;2023-08-06T15:30:09;15.40;99.90
24049;DHT22;12250;50.956;4.746;2023-08-06T15:32:35;15.40;99.90
24049;DHT22;12250;50.956;4.746;2023-08-06T15:35:01;15.40;99.90
24049;DHT22;12250;50.956;4.746;2023-08-06T15:37:30;15.40;99.90
24049;DHT22;12250;50.956;4.746;2023-08-06T15:39:56;15.50;99.90